Time;durP1;ratioP1;P1;durP2;ratioP2;P2;SDS_P1;SDS_P2;PMS_P1;PMS_P2;Temp;Humidity;BMP_temperature;BMP_pressure;BME280_temperature;BME280_humidity;BME280_pressure;Samples;Min_cycle;Max_cycle;Signal;HPM_P1;HPM_P2
2022/05/15 00:01:00;;;;;;;0.30;0.30;;;;;;;;;;6228198;23;20712;-48
2022/05/15 00:03:26;;;;;;;0.00;0.00;;;;;;;;;;6229020;23;20549;-49
2022/05/15 00:05:53;;;;;;;0.43;0.40;;;;;;;;;;6231636;23;20054;-49
2022/05/15 00:08:18;;;;;;;0.10;0.10;;;;;;;;;;6232244;23;20016;-50
2022/05/15 00:10:44;;;;;;;0.15;0.15;;;;;;;;;;6233968;23;20083;-50
2022/05/15 00:13:10;;;;;;;0.10;0.10;;;;;;;;;;6231769;23;20360;-50
2022/05/15 00:15:35;;;;;;;0.00;0.00;;;;;;;;;;6234598;23;20009;-49
2022/05/15 00:18:01;;;;;;;0.43;0.30;;;;;;;;;;6231268;23;20023;-52
2022/05/15 00:20:27;;;;;;;0.00;0.00;;;;;;;;;;6233035;23;20020;-52
2022/05/15 00:22:52;;;;;;;1.38;0.52;;;;;;;;;;6231450;23;20008;-52
2022/05/15 00:25:17;;;;;;;0.13;0.13;;;;;;;;;;6233403;23;20439;-51
2022/05/15 00:27:43;;;;;;;0.00;0.00;;;;;;;;;;6232126;23;20018;-53
2022/05/15 00:30:08;;;;;;;0.13;0.13;;;;;;;;;;6231971;23;20016;-49
2022/05/15 00:32:33;;;;;;;1.27;0.65;;;;;;;;;;6231743;23;20019;-51
2022/05/15 00:34:59;;;;;;;0.40;0.40;;;;;;;;;;6207161;23;20020;-48
2022/05/15 00:37:24;;;;;;;0.10;0.10;;;;;;;;;;6231554;23;20064;-53
2022/05/15 00:39:50;;;;;;;0.10;0.10;;;;;;;;;;6233850;23;20142;-48
2022/05/15 00:42:15;;;;;;;0.22;0.22;;;;;;;;;;6232421;23;20019;-48
2022/05/15 00:44:40;;;;;;;0.50;0.25;;;;;;;;;;6233717;23;20012;-53
2022/05/15 00:47:06;;;;;;;0.00;0.00;;;;;;;;;;6231575;23;20008;-52
2022/05/15 00:49:32;;;;;;;0.00;0.00;;;;;;;;;;6233075;23;20008;-53
2022/05/15 00:51:59;;;;;;;0.05;0.05;;;;;;;;;;6231585;23;20064;-54
2022/05/15 00:54:29;;;;;;;0.00;0.00;;;;;;;;;;6232716;23;20004;-51
2022/05/15 00:56:54;;;;;;;;;;;;;;;;;;6231248;23;20039;-49
2022/05/15 00:59:21;;;;;;;0.00;0.00;;;;;;;;;;6232881;23;19919;-52
2022/05/15 01:01:46;;;;;;;2.05;1.27;;;;;;;;;;6232261;23;20226;-52
2022/05/15 01:04:12;;;;;;;0.00;0.00;;;;;;;;;;6232362;23;20022;-54
2022/05/15 01:06:38;;;;;;;0.00;0.00;;;;;;;;;;6231717;23;20082;-52
2022/05/15 01:09:04;;;;;;;0.00;0.00;;;;;;;;;;6233244;23;20012;-53
2022/05/15 01:11:30;;;;;;;4.90;0.98;;;;;;;;;;6231733;23;20012;-51
2022/05/15 01:13:56;;;;;;;0.10;0.10;;;;;;;;;;6233345;23;20042;-52
2022/05/15 01:16:23;;;;;;;0.45;0.20;;;;;;;;;;6230710;23;20012;-54
2022/05/15 01:18:48;;;;;;;0.47;0.47;;;;;;;;;;6234147;23;20024;-53
2022/05/15 01:21:20;;;;;;;0.25;0.25;;;;;;;;;;6229891;23;20009;-53
2022/05/15 01:23:45;;;;;;;2.28;0.60;;;;;;;;;;6233854;23;20012;-51
2022/05/15 01:26:11;;;;;;;0.60;0.52;;;;;;;;;;6225294;23;20020;-53
2022/05/15 01:28:37;;;;;;;0.50;0.50;;;;;;;;;;6232790;23;20286;-54
2022/05/15 01:31:02;;;;;;;0.40;0.40;;;;;;;;;;6231292;23;20008;-53
2022/05/15 01:33:27;;;;;;;0.08;0.08;;;;;;;;;;6232147;23;20080;-53
2022/05/15 01:35:52;;;;;;;0.00;0.00;;;;;;;;;;6232187;23;20020;-52
2022/05/15 01:38:18;;;;;;;0.10;0.10;;;;;;;;;;6232337;23;20091;-49
2022/05/15 01:40:45;;;;;;;0.00;0.00;;;;;;;;;;6232491;23;20079;-53
2022/05/15 01:43:10;;;;;;;0.00;0.00;;;;;;;;;;6232004;23;20413;-49
2022/05/15 01:45:35;;;;;;;0.13;0.10;;;;;;;;;;6230543;23;20483;-52
2022/05/15 01:48:01;;;;;;;0.80;0.80;;;;;;;;;;6233374;23;20031;-52
2022/05/15 01:50:27;;;;;;;0.00;0.00;;;;;;;;;;6231295;23;20027;-51
2022/05/15 01:52:52;;;;;;;0.32;0.30;;;;;;;;;;6232676;23;20012;-51
2022/05/15 01:55:17;;;;;;;0.00;0.00;;;;;;;;;;6232395;23;20046;-48
2022/05/15 01:57:42;;;;;;;0.10;0.10;;;;;;;;;;6232989;23;20011;-48
2022/05/15 02:00:10;;;;;;;0.08;0.08;;;;;;;;;;6232413;23;20043;-54
2022/05/15 02:02:35;;;;;;;0.20;0.20;;;;;;;;;;6230805;23;20000;-52
2022/05/15 02:05:00;;;;;;;0.00;0.00;;;;;;;;;;6232665;23;20015;-50
2022/05/15 02:07:26;;;;;;;0.30;0.30;;;;;;;;;;6230217;23;20012;-49
2022/05/15 02:09:51;;;;;;;0.35;0.35;;;;;;;;;;6232791;23;20001;-51
2022/05/15 02:12:16;;;;;;;0.63;0.63;;;;;;;;;;6231528;23;20004;-54
2022/05/15 02:14:42;;;;;;;0.30;0.30;;;;;;;;;;6233367;23;20016;-52
2022/05/15 02:17:07;;;;;;;0.15;0.10;;;;;;;;;;6231658;23;20023;-49
2022/05/15 02:19:32;;;;;;;0.00;0.00;;;;;;;;;;6232345;23;20042;-50
2022/05/15 02:26:48;;;;;;;0.10;0.10;;;;;;;;;;6280568;22;20074;-51
2022/05/15 02:29:13;;;;;;;0.10;0.10;;;;;;;;;;6291725;22;20022;-50
2022/05/15 02:31:38;;;;;;;0.03;0.03;;;;;;;;;;6295043;22;20010;-51
2022/05/15 02:34:04;;;;;;;1.35;0.38;;;;;;;;;;6291828;22;20059;-52
2022/05/15 02:36:29;;;;;;;0.00;0.00;;;;;;;;;;6294293;22;20372;-50
2022/05/15 02:38:54;;;;;;;0.00;0.00;;;;;;;;;;6292655;22;20074;-50
2022/05/15 02:41:20;;;;;;;0.00;0.00;;;;;;;;;;6296496;22;20082;-50
2022/05/15 02:43:45;;;;;;;0.10;0.10;;;;;;;;;;6294391;22;20015;-50
2022/05/15 02:46:11;;;;;;;1.02;1.00;;;;;;;;;;6295353;22;20366;-51
2022/05/15 02:51:29;;;;;;;0.10;0.10;;;;;;;;;;6253922;22;20509;-46
2022/05/15 02:53:54;;;;;;;0.20;0.20;;;;;;;;;;6294726;22;20004;-48
2022/05/15 02:56:21;;;;;;;1.35;0.60;;;;;;;;;;6286262;22;20098;-49
2022/05/15 02:58:47;;;;;;;0.10;0.10;;;;;;;;;;6294422;22;20098;-49
2022/05/15 03:01:13;;;;;;;0.10;0.10;;;;;;;;;;6295003;22;20038;-48
2022/05/15 03:03:38;;;;;;;0.98;0.35;;;;;;;;;;6296044;22;20003;-48
2022/05/15 03:06:05;;;;;;;0.17;0.17;;;;;;;;;;6295444;22;20015;-48
2022/05/15 03:08:32;;;;;;;0.22;0.10;;;;;;;;;;6293999;22;20076;-48
2022/05/15 03:10:57;;;;;;;0.00;0.00;;;;;;;;;;6295487;22;19999;-50
2022/05/15 03:13:22;;;;;;;0.10;0.10;;;;;;;;;;6293829;22;20018;-46
2022/05/15 03:15:48;;;;;;;0.10;0.10;;;;;;;;;;6296369;22;20510;-49
2022/05/15 03:18:13;;;;;;;0.15;0.15;;;;;;;;;;6293148;22;20292;-47
2022/05/15 03:20:38;;;;;;;0.08;0.08;;;;;;;;;;6296524;22;20031;-48
2022/05/15 03:23:04;;;;;;;0.85;0.55;;;;;;;;;;6293293;22;20018;-47
2022/05/15 03:25:31;;;;;;;0.00;0.00;;;;;;;;;;6295339;22;20080;-46
2022/05/15 03:27:57;;;;;;;0.32;0.10;;;;;;;;;;6295402;22;20328;-46
2022/05/15 03:30:22;;;;;;;0.20;0.20;;;;;;;;;;6292851;22;20118;-46
2022/05/15 03:32:47;;;;;;;0.25;0.25;;;;;;;;;;6295936;22;20023;-50
2022/05/15 03:35:14;;;;;;;0.20;0.20;;;;;;;;;;6292436;22;20027;-52
2022/05/15 03:37:40;;;;;;;0.05;0.05;;;;;;;;;;6297652;22;20006;-47
2022/05/15 03:40:05;;;;;;;0.10;0.10;;;;;;;;;;6293760;22;20102;-49
2022/05/15 03:42:31;;;;;;;0.10;0.10;;;;;;;;;;6295879;22;20014;-47
2022/05/15 03:44:57;;;;;;;0.08;0.08;;;;;;;;;;6294183;22;20018;-47
2022/05/15 03:47:22;;;;;;;0.20;0.20;;;;;;;;;;6296250;22;20011;-48
2022/05/15 03:49:48;;;;;;;0.88;0.73;;;;;;;;;;6294962;22;20062;-47
2022/05/15 03:52:14;;;;;;;0.10;0.10;;;;;;;;;;6294802;22;20133;-49
2022/05/15 03:54:39;;;;;;;0.65;0.43;;;;;;;;;;6292603;22;20007;-46
2022/05/15 03:57:05;;;;;;;0.00;0.00;;;;;;;;;;6295311;22;20011;-49
2022/05/15 03:59:35;;;;;;;0.00;0.00;;;;;;;;;;6264383;22;20027;-50
2022/05/15 04:02:01;;;;;;;0.22;0.22;;;;;;;;;;6294750;22;20007;-48
2022/05/15 04:04:26;;;;;;;0.10;0.10;;;;;;;;;;6293863;22;20083;-45
2022/05/15 04:06:51;;;;;;;0.52;0.52;;;;;;;;;;6295779;22;20059;-47
2022/05/15 04:09:16;;;;;;;0.75;0.75;;;;;;;;;;6293601;22;20019;-46
2022/05/15 04:11:42;;;;;;;0.00;0.00;;;;;;;;;;6296352;22;20482;-47
2022/05/15 04:14:08;;;;;;;0.68;0.68;;;;;;;;;;6292738;22;20094;-48
2022/05/15 04:16:33;;;;;;;0.20;0.20;;;;;;;;;;6295280;22;20019;-47
2022/05/15 04:18:59;;;;;;;0.30;0.30;;;;;;;;;;6292864;22;20019;-48
2022/05/15 04:21:24;;;;;;;0.08;0.08;;;;;;;;;;6295615;22;20026;-46
2022/05/15 04:23:50;;;;;;;0.00;0.00;;;;;;;;;;6293044;22;20027;-47
2022/05/15 04:26:15;;;;;;;0.32;0.32;;;;;;;;;;6295824;22;20023;-48
2022/05/15 04:28:41;;;;;;;0.35;0.35;;;;;;;;;;6294530;22;20674;-48
2022/05/15 04:31:07;;;;;;;0.90;0.75;;;;;;;;;;6295130;22;20596;-47
2022/05/15 04:33:32;;;;;;;0.00;0.00;;;;;;;;;;6293521;22;20714;-46
2022/05/15 04:35:57;;;;;;;0.13;0.13;;;;;;;;;;6294449;22;20011;-46
2022/05/15 04:38:23;;;;;;;1.75;1.65;;;;;;;;;;6293520;22;20018;-47
2022/05/15 04:40:48;;;;;;;0.10;0.10;;;;;;;;;;6296247;22;20019;-47
2022/05/15 04:43:14;;;;;;;0.52;0.52;;;;;;;;;;6292502;22;20022;-47
2022/05/15 04:45:39;;;;;;;0.00;0.00;;;;;;;;;;6295591;22;20034;-47
2022/05/15 04:48:04;;;;;;;0.20;0.20;;;;;;;;;;6294190;22;20019;-47
2022/05/15 04:50:30;;;;;;;0.10;0.10;;;;;;;;;;6294762;22;20023;-46
2022/05/15 04:52:55;;;;;;;0.43;0.43;;;;;;;;;;6293760;22;20030;-47
2022/05/15 04:55:20;;;;;;;0.10;0.10;;;;;;;;;;6294330;22;20055;-47
2022/05/15 04:57:46;;;;;;;0.05;0.05;;;;;;;;;;6266660;22;20011;-47
2022/05/15 05:00:13;;;;;;;0.20;0.20;;;;;;;;;;6294281;22;20023;-46
2022/05/15 05:02:38;;;;;;;0.22;0.15;;;;;;;;;;6292170;22;20519;-47
2022/05/15 05:05:04;;;;;;;0.52;0.52;;;;;;;;;;6294556;22;20011;-47
2022/05/15 05:07:29;;;;;;;0.20;0.20;;;;;;;;;;6292367;22;20041;-46
2022/05/15 05:09:55;;;;;;;0.08;0.08;;;;;;;;;;6295483;22;20012;-46
2022/05/15 05:12:20;;;;;;;0.10;0.10;;;;;;;;;;6292566;22;20038;-47
2022/05/15 05:14:46;;;;;;;0.40;0.40;;;;;;;;;;6295504;22;20018;-46
2022/05/15 05:17:11;;;;;;;0.00;0.00;;;;;;;;;;6293096;22;20015;-46
2022/05/15 05:19:36;;;;;;;0.30;0.20;;;;;;;;;;6293543;22;20597;-47
2022/05/15 05:22:02;;;;;;;0.10;0.10;;;;;;;;;;6293959;22;20038;-45
2022/05/15 05:24:27;;;;;;;0.32;0.30;;;;;;;;;;6292935;22;20080;-45
2022/05/15 05:26:52;;;;;;;0.20;0.20;;;;;;;;;;6293857;22;20041;-46
2022/05/15 05:29:18;;;;;;;0.08;0.08;;;;;;;;;;6292837;22;20635;-49
2022/05/15 05:31:43;;;;;;;0.75;0.75;;;;;;;;;;6295544;22;20011;-45
2022/05/15 05:34:08;;;;;;;0.00;0.00;;;;;;;;;;6291713;22;20355;-46
2022/05/15 05:36:34;;;;;;;0.00;0.00;;;;;;;;;;6294146;22;20023;-47
2022/05/15 05:38:59;;;;;;;0.30;0.30;;;;;;;;;;6291947;22;20034;-46
2022/05/15 05:41:24;;;;;;;0.00;0.00;;;;;;;;;;6294125;22;20015;-46
2022/05/15 05:43:50;;;;;;;0.10;0.10;;;;;;;;;;6293357;22;20011;-46
2022/05/15 05:46:15;;;;;;;0.00;0.00;;;;;;;;;;6294269;22;20074;-47
2022/05/15 05:48:45;;;;;;;0.10;0.10;;;;;;;;;;6293120;22;20007;-46
2022/05/15 05:51:11;;;;;;;0.80;0.80;;;;;;;;;;6293509;22;20933;-47
2022/05/15 05:53:36;;;;;;;0.10;0.10;;;;;;;;;;6290561;22;20014;-46
2022/05/15 05:56:01;;;;;;;0.52;0.52;;;;;;;;;;6292965;22;20397;-45
2022/05/15 05:58:27;;;;;;;0.10;0.10;;;;;;;;;;6292593;22;20023;-48
2022/05/15 06:00:52;;;;;;;0.32;0.32;;;;;;;;;;6292978;22;20049;-46
2022/05/15 06:06:01;;;;;;;0.10;0.10;;;;;;;;;;6293614;22;20087;-47
2022/05/15 06:08:28;;;;;;;0.10;0.10;;;;;;;;;;6294397;22;20007;-47
2022/05/15 06:10:53;;;;;;;0.08;0.08;;;;;;;;;;6292714;22;20027;-48
2022/05/15 06:13:18;;;;;;;0.08;0.08;;;;;;;;;;6294728;22;20033;-47
2022/05/15 06:15:43;;;;;;;0.05;0.05;;;;;;;;;;6295930;22;20007;-48
2022/05/15 06:18:08;;;;;;;0.10;0.10;;;;;;;;;;6295522;22;20485;-46
2022/05/15 06:20:34;;;;;;;0.10;0.10;;;;;;;;;;6295167;22;20026;-46
2022/05/15 06:22:59;;;;;;;0.00;0.00;;;;;;;;;;6243102;22;20012;-46
2022/05/15 06:25:25;;;;;;;0.25;0.25;;;;;;;;;;6292302;22;20007;-46
2022/05/15 06:27:50;;;;;;;0.47;0.47;;;;;;;;;;6296908;22;20023;-46
2022/05/15 06:30:16;;;;;;;0.10;0.10;;;;;;;;;;6265192;22;20065;-46
2022/05/15 06:32:41;;;;;;;0.20;0.20;;;;;;;;;;6297466;22;20015;-46
2022/05/15 06:35:08;;;;;;;0.17;0.17;;;;;;;;;;6294594;22;20424;-47
2022/05/15 06:37:33;;;;;;;0.00;0.00;;;;;;;;;;6296180;22;20007;-46
2022/05/15 06:39:58;;;;;;;1.33;1.27;;;;;;;;;;6294149;22;20042;-47
2022/05/15 06:42:25;;;;;;;0.10;0.10;;;;;;;;;;6297349;22;20601;-46
2022/05/15 06:44:50;;;;;;;0.55;0.55;;;;;;;;;;6267134;22;20461;-48
2022/05/15 06:47:15;;;;;;;0.00;0.00;;;;;;;;;;6296097;22;20356;-46
2022/05/15 06:49:41;;;;;;;0.00;0.00;;;;;;;;;;6295070;22;20015;-47
2022/05/15 06:52:06;;;;;;;0.00;0.00;;;;;;;;;;6296024;22;20023;-46
2022/05/15 06:54:31;;;;;;;0.22;0.22;;;;;;;;;;6293968;22;20015;-46
2022/05/15 06:59:41;;;;;;;0.30;0.28;;;;;;;;;;6295105;22;20026;-48
2022/05/15 07:02:06;;;;;;;1.35;0.63;;;;;;;;;;6291620;22;20012;-47
2022/05/15 07:04:31;;;;;;;0.03;0.03;;;;;;;;;;6292105;22;20015;-48
2022/05/15 07:06:57;;;;;;;0.20;0.20;;;;;;;;;;6294854;22;20019;-47
2022/05/15 07:09:22;;;;;;;0.00;0.00;;;;;;;;;;6294059;22;20022;-45
2022/05/15 07:11:47;;;;;;;0.08;0.08;;;;;;;;;;6295948;22;20007;-48
2022/05/15 07:14:12;;;;;;;1.52;1.42;;;;;;;;;;6294072;22;20023;-48
2022/05/15 07:16:39;;;;;;;0.30;0.30;;;;;;;;;;6290304;22;20038;-46
2022/05/15 07:19:04;;;;;;;0.60;0.60;;;;;;;;;;6286613;22;20453;-46
2022/05/15 07:21:29;;;;;;;0.43;0.43;;;;;;;;;;6290756;22;20019;-46
2022/05/15 07:23:55;;;;;;;0.52;0.52;;;;;;;;;;6290618;22;20015;-46
2022/05/15 07:26:20;;;;;;;0.68;0.68;;;;;;;;;;6292386;22;20015;-47
2022/05/15 07:28:50;;;;;;;0.00;0.00;;;;;;;;;;6290988;22;20003;-48
2022/05/15 07:31:18;;;;;;;0.20;0.20;;;;;;;;;;6292270;22;20066;-46
2022/05/15 07:33:44;;;;;;;0.85;0.85;;;;;;;;;;6293504;22;20012;-49
2022/05/15 07:36:09;;;;;;;0.15;0.15;;;;;;;;;;6260918;22;20399;-46
2022/05/15 07:38:34;;;;;;;2.05;1.65;;;;;;;;;;6293747;22;20399;-46
2022/05/15 07:41:00;;;;;;;0.00;0.00;;;;;;;;;;6290598;22;20303;-46
2022/05/15 07:43:25;;;;;;;0.25;0.25;;;;;;;;;;6265508;22;20045;-46
2022/05/15 07:45:50;;;;;;;0.28;0.28;;;;;;;;;;6292569;22;20011;-48
2022/05/15 07:48:16;;;;;;;0.28;0.28;;;;;;;;;;6292197;22;20576;-46
2022/05/15 07:50:41;;;;;;;1.25;0.98;;;;;;;;;;6266159;22;20023;-46
2022/05/15 07:53:06;;;;;;;0.20;0.20;;;;;;;;;;6291092;22;20015;-46
2022/05/15 07:55:32;;;;;;;0.20;0.15;;;;;;;;;;6291461;22;20007;-47
2022/05/15 07:57:57;;;;;;;0.22;0.22;;;;;;;;;;6291625;22;20423;-47
2022/05/15 08:00:22;;;;;;;5.60;0.55;;;;;;;;;;6292237;22;20031;-46
2022/05/15 08:02:48;;;;;;;0.10;0.10;;;;;;;;;;6291711;22;20018;-48
2022/05/15 08:08:01;;;;;;;0.22;0.22;;;;;;;;;;6292140;22;20058;-48
2022/05/15 08:10:32;;;;;;;1.30;0.50;;;;;;;;;;6290660;22;20026;-46
2022/05/15 08:12:57;;;;;;;0.20;0.20;;;;;;;;;;6264792;22;20011;-49
2022/05/15 08:15:22;;;;;;;0.30;0.13;;;;;;;;;;6290765;22;20087;-47
2022/05/15 08:17:47;;;;;;;1.10;1.00;;;;;;;;;;6266129;22;20007;-47
2022/05/15 08:25:42;;;;;;;0.75;0.65;;;;;;;;;;6291844;22;20014;-49
2022/05/15 08:28:07;;;;;;;1.48;0.95;;;;;;;;;;6292574;22;20011;-46
2022/05/15 08:30:33;;;;;;;0.00;0.00;;;;;;;;;;6291778;22;20013;-45
2022/05/15 08:32:58;;;;;;;0.65;0.65;;;;;;;;;;6291450;22;20076;-47
2022/05/15 08:35:23;;;;;;;0.00;0.00;;;;;;;;;;6291428;22;20318;-47
2022/05/15 08:37:49;;;;;;;0.28;0.28;;;;;;;;;;6293454;22;20011;-46
2022/05/15 08:40:15;;;;;;;1.05;0.75;;;;;;;;;;6290078;22;20023;-47
2022/05/15 08:42:50;;;;;;;0.10;0.10;;;;;;;;;;6292745;22;20010;-47
2022/05/15 08:45:17;;;;;;;1.45;1.10;;;;;;;;;;6291270;22;20073;-47
2022/05/15 08:47:47;;;;;;;3.63;1.83;;;;;;;;;;6291834;22;20028;-48
2022/05/15 08:50:15;;;;;;;0.10;0.10;;;;;;;;;;6290457;22;20027;-46
2022/05/15 08:52:54;;;;;;;0.20;0.20;;;;;;;;;;6291901;22;20051;-46
2022/05/15 08:55:25;;;;;;;0.80;0.43;;;;;;;;;;6285840;22;20042;-46
2022/05/15 08:57:53;;;;;;;0.10;0.10;;;;;;;;;;6277225;22;20010;-45
2022/05/15 09:00:20;;;;;;;0.00;0.00;;;;;;;;;;6292738;22;20038;-47
2022/05/15 09:02:46;;;;;;;0.03;0.03;;;;;;;;;;6293130;22;20008;-48
2022/05/15 09:05:12;;;;;;;0.00;0.00;;;;;;;;;;6294435;22;20276;-49
2022/05/15 09:07:50;;;;;;;0.10;0.10;;;;;;;;;;6265361;22;20023;-46
2022/05/15 09:10:24;;;;;;;0.50;0.50;;;;;;;;;;6294594;22;20025;-50
2022/05/15 09:13:11;;;;;;;2.03;1.33;;;;;;;;;;6292836;22;20018;-46
2022/05/15 09:15:39;;;;;;;1.75;1.00;;;;;;;;;;6292981;22;20015;-46
2022/05/15 09:18:05;;;;;;;0.10;0.10;;;;;;;;;;6294484;22;20027;-47
2022/05/15 09:20:39;;;;;;;0.40;0.40;;;;;;;;;;6293273;22;20023;-46
2022/05/15 09:23:04;;;;;;;2.65;0.60;;;;;;;;;;6293157;22;20019;-47
2022/05/15 09:25:32;;;;;;;0.22;0.15;;;;;;;;;;6293099;22;20076;-48
2022/05/15 09:27:58;;;;;;;0.00;0.00;;;;;;;;;;6294246;22;20011;-46
2022/05/15 09:30:23;;;;;;;0.20;0.20;;;;;;;;;;6285752;22;20096;-46
2022/05/15 09:32:54;;;;;;;1.10;1.10;;;;;;;;;;6290835;22;20007;-51
2022/05/15 09:35:26;;;;;;;0.98;0.43;;;;;;;;;;6287656;22;20046;-48
2022/05/15 09:40:40;;;;;;;0.20;0.13;;;;;;;;;;6288045;22;20023;-47
2022/05/15 09:43:31;;;;;;;0.03;0.03;;;;;;;;;;6290116;22;20091;-48
2022/05/15 09:45:57;;;;;;;0.03;0.03;;;;;;;;;;6288234;22;20015;-47
2022/05/15 09:48:24;;;;;;;0.55;0.40;;;;;;;;;;6289291;22;20015;-46
2022/05/15 09:50:52;;;;;;;0.20;0.20;;;;;;;;;;6290298;22;20049;-47
2022/05/15 09:53:23;;;;;;;0.50;0.50;;;;;;;;;;6287279;22;20042;-46
2022/05/15 09:55:58;;;;;;;0.00;0.00;;;;;;;;;;6289972;22;20015;-49
2022/05/15 09:58:23;;;;;;;1.60;1.17;;;;;;;;;;6289902;22;20012;-47
2022/05/15 10:00:48;;;;;;;0.10;0.10;;;;;;;;;;6290438;22;20148;-47
2022/05/15 10:03:16;;;;;;;0.28;0.28;;;;;;;;;;6286090;22;20003;-49
2022/05/15 10:05:42;;;;;;;0.00;0.00;;;;;;;;;;6287696;22;20018;-46
2022/05/15 10:08:09;;;;;;;0.95;0.38;;;;;;;;;;6285948;22;20011;-46
2022/05/15 10:10:37;;;;;;;0.30;0.30;;;;;;;;;;6290581;22;20055;-47
2022/05/15 10:13:05;;;;;;;0.57;0.57;;;;;;;;;;6287890;22;20026;-46
2022/05/15 10:15:34;;;;;;;3.50;1.88;;;;;;;;;;6290576;22;20025;-46
2022/05/15 10:18:00;;;;;;;0.03;0.03;;;;;;;;;;6287643;22;20012;-49
2022/05/15 10:20:29;;;;;;;1.65;0.77;;;;;;;;;;6290260;22;20023;-47
2022/05/15 10:23:01;;;;;;;0.10;0.10;;;;;;;;;;6287545;22;20012;-49
2022/05/15 10:25:45;;;;;;;0.15;0.15;;;;;;;;;;6290357;22;20023;-46
2022/05/15 10:28:13;;;;;;;0.35;0.35;;;;;;;;;;6289894;22;20423;-47
2022/05/15 10:30:47;;;;;;;0.00;0.00;;;;;;;;;;6288860;22;20021;-47
2022/05/15 10:33:17;;;;;;;1.58;1.38;;;;;;;;;;6288555;22;20014;-49
2022/05/15 10:35:50;;;;;;;0.22;0.22;;;;;;;;;;6262079;22;20018;-45
2022/05/15 10:38:30;;;;;;;3.22;2.10;;;;;;;;;;6289985;22;20079;-45
2022/05/15 10:41:15;;;;;;;0.10;0.10;;;;;;;;;;6287125;22;20372;-47
2022/05/15 10:43:53;;;;;;;0.80;0.20;;;;;;;;;;6210836;22;20011;-46
2022/05/15 10:46:27;;;;;;;1.20;1.10;;;;;;;;;;6289638;22;20015;-47
2022/05/15 10:49:11;;;;;;;1.23;0.32;;;;;;;;;;6286794;22;20015;-47
2022/05/15 10:51:43;;;;;;;0.10;0.10;;;;;;;;;;6286201;22;20041;-47
2022/05/15 10:57:29;;;;;;;0.00;0.00;;;;;;;;;;6245536;22;20011;-46
2022/05/15 11:00:10;;;;;;;2.85;1.27;;;;;;;;;;6289296;22;20047;-47
2022/05/15 11:02:47;;;;;;;0.63;0.63;;;;;;;;;;6293395;22;20338;-46
2022/05/15 11:05:30;;;;;;;0.00;0.00;;;;;;;;;;6266964;22;20030;-47
2022/05/15 11:08:17;;;;;;;1.17;0.98;;;;;;;;;;6292682;22;20007;-47
2022/05/15 11:10:49;;;;;;;0.10;0.10;;;;;;;;;;6294883;22;20041;-47
2022/05/15 11:13:34;;;;;;;0.77;0.77;;;;;;;;;;6265821;22;20071;-46
2022/05/15 11:16:20;;;;;;;0.17;0.17;;;;;;;;;;6293766;22;20022;-46
2022/05/15 11:19:04;;;;;;;0.30;0.30;;;;;;;;;;6293011;22;20057;-48
2022/05/15 11:21:33;;;;;;;0.22;0.22;;;;;;;;;;6295155;22;20023;-47
2022/05/15 11:24:07;;;;;;;6.78;1.85;;;;;;;;;;6294169;22;20022;-45
2022/05/15 11:26:41;;;;;;;0.40;0.40;;;;;;;;;;6295638;22;20022;-46
2022/05/15 11:29:09;;;;;;;0.30;0.30;;;;;;;;;;6294938;22;20018;-47
2022/05/15 11:31:35;;;;;;;0.30;0.30;;;;;;;;;;6294075;22;20110;-48
2022/05/15 11:34:05;;;;;;;0.80;0.60;;;;;;;;;;6294970;22;20051;-46
2022/05/15 11:36:33;;;;;;;;;;;;;;;;;;6295188;22;20007;-47
2022/05/15 11:39:00;;;;;;;0.47;0.47;;;;;;;;;;6268048;22;19917;-47
2022/05/15 11:41:36;;;;;;;0.32;0.32;;;;;;;;;;6293091;22;20007;-46
2022/05/15 11:44:14;;;;;;;0.40;0.40;;;;;;;;;;6295627;22;20081;-46
2022/05/15 11:46:45;;;;;;;0.20;0.20;;;;;;;;;;6293813;22;20035;-47
2022/05/15 11:49:13;;;;;;;0.70;0.70;;;;;;;;;;6294793;22;20026;-47
2022/05/15 11:51:39;;;;;;;0.00;0.00;;;;;;;;;;6293667;22;20027;-45
2022/05/15 11:54:07;;;;;;;0.80;0.80;;;;;;;;;;6294943;22;20014;-46
2022/05/15 11:56:35;;;;;;;1.10;1.10;;;;;;;;;;6294172;22;23225;-45
2022/05/15 11:59:06;;;;;;;1.38;1.27;;;;;;;;;;6294749;22;20030;-46
2022/05/15 12:01:32;;;;;;;1.05;0.95;;;;;;;;;;6295512;22;20019;-45
2022/05/15 12:03:58;;;;;;;0.60;0.60;;;;;;;;;;6266461;22;20017;-45
2022/05/15 12:06:25;;;;;;;2.13;0.85;;;;;;;;;;6290546;22;20172;-45
2022/05/15 12:08:53;;;;;;;0.10;0.10;;;;;;;;;;6293866;22;20154;-46
2022/05/15 12:11:18;;;;;;;0.13;0.13;;;;;;;;;;6292995;22;20015;-46
2022/05/15 12:13:45;;;;;;;0.13;0.13;;;;;;;;;;6294231;22;20085;-47
2022/05/15 12:16:15;;;;;;;0.73;0.47;;;;;;;;;;6294675;22;20267;-47
2022/05/15 12:18:41;;;;;;;0.35;0.35;;;;;;;;;;6294316;22;20471;-47
2022/05/15 12:21:07;;;;;;;4.00;0.63;;;;;;;;;;6294946;22;20023;-46
2022/05/15 12:23:35;;;;;;;0.10;0.10;;;;;;;;;;6294003;22;20019;-46
2022/05/15 12:26:16;;;;;;;2.33;1.13;;;;;;;;;;6294655;22;20224;-46
2022/05/15 12:28:50;;;;;;;0.20;0.20;;;;;;;;;;6293492;22;20011;-47
2022/05/15 12:31:17;;;;;;;0.52;0.43;;;;;;;;;;6294429;22;20019;-45
2022/05/15 12:33:44;;;;;;;2.10;1.52;;;;;;;;;;6266883;22;20030;-47
2022/05/15 12:36:30;;;;;;;1.00;1.00;;;;;;;;;;6260218;22;20491;-48
2022/05/15 12:38:55;;;;;;;0.40;0.40;;;;;;;;;;6290159;22;20008;-45
2022/05/15 12:41:25;;;;;;;0.15;0.15;;;;;;;;;;6289272;22;20015;-46
2022/05/15 12:43:51;;;;;;;0.20;0.13;;;;;;;;;;6290936;22;20022;-45
2022/05/15 12:46:24;;;;;;;6.63;0.38;;;;;;;;;;6288587;22;20011;-46
2022/05/15 12:48:49;;;;;;;0.52;0.52;;;;;;;;;;6263918;22;20007;-45
2022/05/15 12:51:16;;;;;;;0.43;0.40;;;;;;;;;;6288314;22;20412;-47
2022/05/15 12:53:45;;;;;;;0.22;0.22;;;;;;;;;;6287999;22;20865;-45
2022/05/15 12:56:11;;;;;;;;;;;;;;;;;;6289867;22;20098;-45
2022/05/15 12:58:36;;;;;;;1.17;0.50;;;;;;;;;;6287333;22;19903;-45
2022/05/15 13:01:03;;;;;;;0.10;0.10;;;;;;;;;;6290473;22;20337;-46
2022/05/15 13:03:29;;;;;;;2.13;0.40;;;;;;;;;;6290731;22;20620;-45
2022/05/15 13:05:56;;;;;;;0.20;0.20;;;;;;;;;;6288704;22;20015;-46
2022/05/15 13:08:22;;;;;;;0.60;0.60;;;;;;;;;;6289733;22;20058;-47
2022/05/15 13:10:54;;;;;;;0.38;0.20;;;;;;;;;;6288184;22;20018;-45
2022/05/15 13:13:30;;;;;;;0.10;0.10;;;;;;;;;;6290088;22;20015;-44
2022/05/15 13:15:56;;;;;;;0.10;0.10;;;;;;;;;;6288530;22;20012;-46
2022/05/15 13:18:23;;;;;;;0.00;0.00;;;;;;;;;;6262471;22;20013;-45
2022/05/15 13:20:52;;;;;;;1.23;1.23;;;;;;;;;;6289568;22;20019;-45
2022/05/15 13:23:17;;;;;;;0.00;0.00;;;;;;;;;;6287854;22;20023;-47
2022/05/15 13:25:46;;;;;;;0.10;0.10;;;;;;;;;;6287008;22;20015;-46
2022/05/15 13:28:11;;;;;;;0.00;0.00;;;;;;;;;;6288447;22;20486;-45
2022/05/15 13:30:37;;;;;;;0.00;0.00;;;;;;;;;;6289007;22;20629;-45
2022/05/15 13:33:04;;;;;;;0.00;0.00;;;;;;;;;;6292413;22;20027;-46
2022/05/15 13:35:33;;;;;;;1.08;0.30;;;;;;;;;;6289155;22;20061;-48
2022/05/15 13:38:11;;;;;;;0.00;0.00;;;;;;;;;;6293944;22;20015;-48
2022/05/15 13:43:25;;;;;;;0.10;0.10;;;;;;;;;;6294296;22;20360;-46
2022/05/15 13:45:52;;;;;;;0.10;0.10;;;;;;;;;;6263173;22;20086;-46
2022/05/15 13:48:18;;;;;;;0.10;0.10;;;;;;;;;;6292371;22;20023;-48
2022/05/15 13:50:48;;;;;;;0.08;0.08;;;;;;;;;;6292398;22;20034;-45
2022/05/15 13:53:16;;;;;;;0.00;0.00;;;;;;;;;;6290089;22;20035;-46
2022/05/15 13:55:42;;;;;;;0.00;0.00;;;;;;;;;;6290748;22;20018;-46
2022/05/15 13:58:07;;;;;;;0.10;0.10;;;;;;;;;;6293707;22;20023;-51
2022/05/15 14:00:32;;;;;;;0.00;0.00;;;;;;;;;;6293770;22;20015;-46
2022/05/15 14:03:03;;;;;;;0.00;0.00;;;;;;;;;;6292899;22;20017;-46
2022/05/15 14:05:30;;;;;;;0.08;0.08;;;;;;;;;;6294475;22;20041;-45
2022/05/15 14:08:08;;;;;;;0.10;0.10;;;;;;;;;;6261302;22;20007;-45
2022/05/15 14:10:33;;;;;;;0.00;0.00;;;;;;;;;;6293542;22;20088;-46
2022/05/15 14:13:01;;;;;;;0.10;0.10;;;;;;;;;;6290872;22;20007;-48
2022/05/15 14:15:35;;;;;;;0.00;0.00;;;;;;;;;;6266029;22;20010;-47
2022/05/15 14:18:02;;;;;;;0.00;0.00;;;;;;;;;;6294045;22;20011;-47
2022/05/15 14:20:29;;;;;;;0.22;0.22;;;;;;;;;;6264187;22;20030;-47
2022/05/15 14:22:55;;;;;;;0.00;0.00;;;;;;;;;;6294178;22;20046;-47
2022/05/15 14:25:21;;;;;;;0.05;0.05;;;;;;;;;;6239561;22;20015;-47
2022/05/15 14:27:47;;;;;;;0.00;0.00;;;;;;;;;;6294509;22;20072;-48
2022/05/15 14:30:12;;;;;;;0.00;0.00;;;;;;;;;;6290457;22;20082;-47
2022/05/15 14:32:37;;;;;;;0.10;0.10;;;;;;;;;;6257801;22;20015;-46
2022/05/15 14:35:06;;;;;;;0.00;0.00;;;;;;;;;;6279955;22;20410;-47
2022/05/15 14:37:31;;;;;;;0.00;0.00;;;;;;;;;;6293567;22;20117;-45
2022/05/15 14:39:56;;;;;;;0.00;0.00;;;;;;;;;;6290746;22;20023;-46
2022/05/15 14:42:22;;;;;;;0.00;0.00;;;;;;;;;;6261984;22;20015;-44
2022/05/15 14:44:48;;;;;;;0.13;0.10;;;;;;;;;;6287896;22;19999;-46
2022/05/15 14:47:15;;;;;;;0.32;0.20;;;;;;;;;;6292345;22;20038;-47
2022/05/15 14:49:42;;;;;;;0.15;0.15;;;;;;;;;;6296047;22;20019;-45
2022/05/15 14:52:07;;;;;;;0.00;0.00;;;;;;;;;;6291230;22;20597;-44
2022/05/15 14:54:33;;;;;;;0.20;0.20;;;;;;;;;;6293533;22;20058;-46
2022/05/15 14:57:00;;;;;;;0.55;0.55;;;;;;;;;;6285825;22;20014;-47
2022/05/15 14:59:26;;;;;;;0.10;0.10;;;;;;;;;;6290504;22;20023;-44
2022/05/15 15:01:51;;;;;;;0.00;0.00;;;;;;;;;;6263271;22;20129;-44
2022/05/15 15:04:16;;;;;;;0.52;0.52;;;;;;;;;;6289358;22;20019;-48
2022/05/15 15:06:42;;;;;;;0.25;0.25;;;;;;;;;;6290690;22;20007;-44
2022/05/15 15:09:08;;;;;;;0.00;0.00;;;;;;;;;;6289817;22;20033;-47
2022/05/15 15:11:35;;;;;;;0.00;0.00;;;;;;;;;;6291948;22;20031;-48
2022/05/15 15:14:01;;;;;;;0.00;0.00;;;;;;;;;;6290622;22;20007;-44